Terminal Aerodrome Forecast
Issued by NWS

Home | Current Version | Previous Version | Text Only | Print | Product List | Glossary On
Versions: 1 2 3 4 5 6 7 8 9 10 11 12
000
FTUS45 KABQ 302341
TAFAEG
TAF
KAEG 302341Z 0100/0124 VRB06KT P6SM SCT100
     FM010300 VRB06KT P6SM SKC
     FM011900 16008KT P6SM FEW100
     FM012200 14010KT P6SM VCTS SCT100CB BKN150=

USA.gov is the U.S. government's official web portal to all federal, state and local government web resources and services.